createdAt,value
2022-10-01T05:06:19.502Z,24.67
2022-10-01T05:08:45.909Z,22.27
2022-10-01T05:11:13.342Z,20.02
2022-10-01T05:13:39.755Z,19.60
2022-10-01T05:16:06.407Z,19.13
2022-10-01T05:18:33.054Z,18.20
2022-10-01T05:20:59.474Z,17.35
2022-10-01T05:23:25.894Z,17.38
2022-10-01T05:25:52.385Z,17.23
2022-10-01T05:28:22.333Z,17.35
2022-10-01T05:30:49.297Z,17.23
2022-10-01T05:33:15.694Z,17.73
2022-10-01T05:35:42.374Z,17.05
2022-10-01T05:38:08.784Z,17.73
2022-10-01T05:40:35.227Z,16.30
2022-10-01T05:46:48.934Z,16.77
2022-10-01T05:49:17.583Z,16.00
2022-10-01T05:51:44.406Z,16.00
2022-10-01T05:54:12.014Z,16.40
2022-10-01T05:57:24.493Z,15.77
2022-10-01T06:12:23.590Z,14.65
2022-10-01T06:14:50.434Z,14.70
2022-10-01T06:17:16.832Z,14.65
2022-10-01T06:19:43.234Z,14.82
2022-10-01T06:22:09.659Z,13.93
2022-10-01T06:24:36.259Z,13.77
2022-10-01T06:27:02.676Z,13.47
2022-10-01T06:29:29.095Z,14.77
2022-10-01T06:31:55.547Z,14.27
2022-10-01T06:34:22.059Z,15.65
2022-10-01T06:36:48.482Z,15.05
2022-10-01T06:39:14.923Z,14.83
2022-10-01T06:41:43.441Z,15.25
2022-10-01T06:44:10.367Z,14.95
2022-10-01T06:46:36.923Z,16.08
2022-10-01T06:49:03.397Z,15.55
2022-10-01T06:51:48.383Z,15.73
2022-10-01T06:54:14.803Z,14.30
2022-10-01T06:56:41.205Z,13.40
2022-10-01T06:59:07.619Z,13.80
2022-10-01T07:01:34.419Z,13.60
2022-10-01T07:04:01.276Z,13.77
2022-10-01T07:06:28.046Z,13.27
2022-10-01T07:08:54.651Z,19.23
2022-10-01T07:11:22.061Z,18.85
2022-10-01T07:13:54.338Z,19.67
2022-10-01T07:16:21.084Z,14.67
2022-10-01T07:18:47.503Z,16.50
2022-10-01T07:21:13.969Z,13.75
2022-10-01T07:23:40.376Z,14.60
2022-10-01T07:26:08.871Z,14.02
2022-10-01T07:28:35.497Z,14.90
2022-10-01T07:31:06.793Z,14.63
2022-10-01T07:33:33.333Z,14.63
2022-10-01T07:36:01.357Z,12.90
2022-10-01T07:38:27.833Z,12.18
2022-10-01T07:40:54.829Z,13.50
2022-10-01T07:43:21.894Z,13.60
2022-10-01T07:45:49.809Z,14.05
2022-10-01T07:48:16.412Z,13.27
2022-10-01T07:50:45.219Z,12.98
2022-10-01T07:53:11.691Z,13.87
2022-10-01T07:55:38.938Z,14.20
2022-10-01T07:58:05.538Z,14.52
2022-10-01T08:00:35.359Z,14.45
2022-10-01T08:03:01.778Z,14.00
2022-10-01T08:05:33.430Z,13.87
2022-10-01T08:08:04.703Z,12.77
2022-10-01T08:10:34.747Z,13.10
2022-10-01T08:13:02.310Z,13.13
2022-10-01T08:15:29.160Z,12.00
2022-10-01T08:17:55.607Z,13.23
2022-10-01T08:20:22.091Z,13.23
2022-10-01T08:22:48.540Z,13.10
2022-10-01T08:25:15.069Z,14.00
2022-10-01T08:27:41.546Z,14.38
2022-10-01T08:30:08.477Z,13.47
2022-10-01T08:32:34.885Z,13.00
2022-10-01T08:35:01.354Z,13.32
2022-10-01T08:37:28.883Z,14.77
2022-10-01T08:39:56.526Z,14.18
2022-10-01T08:42:47.529Z,13.93
2022-10-01T08:45:39.340Z,14.85
2022-10-01T08:48:10.650Z,14.32
2022-10-01T08:50:53.526Z,14.55
2022-10-01T08:53:34.145Z,14.05
2022-10-01T08:56:01.757Z,14.30
2022-10-01T08:58:58.884Z,14.93
2022-10-01T09:01:26.798Z,15.23
2022-10-01T09:03:54.068Z,14.48
2022-10-01T09:06:25.462Z,14.27
2022-10-01T09:08:54.909Z,15.00
2022-10-01T09:11:30.373Z,16.58
2022-10-01T09:14:21.663Z,16.58
2022-10-01T09:17:11.992Z,15.48
2022-10-01T09:20:01.653Z,15.10
2022-10-01T09:22:41.079Z,14.23
2022-10-01T09:25:23.466Z,16.40
2022-10-01T09:27:52.004Z,14.98
2022-10-01T09:30:21.416Z,15.70
2022-10-01T09:32:55.570Z,15.90
2022-10-01T09:35:33.131Z,15.03
2022-10-01T09:38:20.055Z,14.93
2022-10-01T09:40:55.011Z,14.93
2022-10-01T09:43:32.838Z,15.63
2022-10-01T09:45:59.744Z,14.90
2022-10-01T09:48:56.724Z,14.83
2022-10-01T09:51:39.391Z,14.02
2022-10-01T09:54:20.188Z,15.90
2022-10-01T09:56:53.123Z,15.82
2022-10-01T09:59:48.966Z,15.95
2022-10-01T10:02:20.023Z,16.80
2022-10-01T10:04:46.638Z,15.95
2022-10-01T10:07:17.634Z,15.82
2022-10-01T10:09:44.191Z,16.27
2022-10-01T10:12:25.614Z,16.52
2022-10-01T10:14:55.422Z,14.17
2022-10-01T10:17:22.112Z,14.30
2022-10-01T10:19:51.643Z,15.30
2022-10-01T10:22:28.117Z,16.20
2022-10-01T10:24:58.870Z,15.18
2022-10-01T10:27:30.490Z,14.60
2022-10-01T10:30:16.192Z,13.77
2022-10-01T10:32:43.676Z,13.32
2022-10-01T10:35:14.134Z,12.25
2022-10-01T10:37:47.378Z,12.48
2022-10-01T10:40:20.016Z,12.07
2022-10-01T10:42:54.382Z,11.60
2022-10-01T10:45:42.512Z,11.25
2022-10-01T10:48:16.966Z,12.02
2022-10-01T10:50:45.341Z,12.02
2022-10-01T10:53:23.056Z,11.87
2022-10-01T10:56:01.694Z,11.63
2022-10-01T10:58:30.549Z,12.10
2022-10-01T11:01:12.058Z,12.23
2022-10-01T11:03:43.273Z,11.25
2022-10-01T11:06:11.844Z,10.80
2022-10-01T11:08:39.578Z,11.02
2022-10-01T11:11:08.994Z,10.73
2022-10-01T11:13:59.581Z,11.32
2022-10-01T11:16:47.658Z,9.77
2022-10-01T11:19:23.208Z,9.73
2022-10-01T11:22:12.961Z,7.00
2022-10-01T11:25:16.051Z,6.53
2022-10-01T11:28:10.580Z,5.80
2022-10-01T11:30:46.114Z,6.40
2022-10-01T11:33:36.873Z,5.80
2022-10-01T11:36:28.394Z,5.60
2022-10-01T11:39:05.118Z,5.35
2022-10-01T11:41:36.306Z,5.07
2022-10-01T11:44:08.012Z,5.22
2022-10-01T11:46:38.410Z,4.77
2022-10-01T11:49:23.312Z,4.90
2022-10-01T11:52:08.593Z,4.78
2022-10-01T11:54:39.771Z,4.45
2022-10-01T11:57:32.933Z,5.43
2022-10-01T12:00:10.816Z,4.90
2022-10-01T12:02:57.042Z,4.97
2022-10-01T12:05:28.167Z,4.60
2022-10-01T12:08:09.248Z,5.07
2022-10-01T12:10:47.816Z,4.60
2022-10-01T12:13:46.545Z,5.00
2022-10-01T12:16:24.389Z,4.95
2022-10-01T12:19:09.153Z,5.18
2022-10-01T12:22:24.285Z,5.10
2022-10-01T12:24:51.426Z,4.88
2022-10-01T12:27:37.254Z,4.70
2022-10-01T12:30:13.009Z,4.40
2022-10-01T12:32:58.052Z,4.80
2022-10-01T12:35:35.435Z,4.50
2022-10-01T12:38:13.964Z,4.43
